sensor_id;sensor_type;location;lat;lon;timestamp;pressure;altitude;pressure_sealevel;temperature;humidity
58622;BME280;44389;51.578;5.456;2022-08-07T00:00:41;102558.63;;;10.91;89.10
58622;BME280;44389;51.578;5.456;2022-08-07T00:03:07;102558.47;;;10.87;90.04
58622;BME280;44389;51.578;5.456;2022-08-07T00:05:33;102557.81;;;10.92;90.33
58622;BME280;44389;51.578;5.456;2022-08-07T00:07:59;102555.25;;;10.92;90.02
58622;BME280;44389;51.578;5.456;2022-08-07T00:10:24;102560.25;;;10.89;90.31
58622;BME280;44389;51.578;5.456;2022-08-07T00:12:49;102553.81;;;10.97;90.29
58622;BME280;44389;51.578;5.456;2022-08-07T00:15:15;102554.59;;;10.96;89.99
58622;BME280;44389;51.578;5.456;2022-08-07T00:17:40;102550.34;;;10.96;89.91
58622;BME280;44389;51.578;5.456;2022-08-07T00:20:06;102546.81;;;10.79;89.70
58622;BME280;44389;51.578;5.456;2022-08-07T00:22:32;102540.50;;;10.74;90.38
58622;BME280;44389;51.578;5.456;2022-08-07T00:24:57;102543.56;;;10.67;90.65
58622;BME280;44389;51.578;5.456;2022-08-07T00:27:22;102545.63;;;10.58;90.77
58622;BME280;44389;51.578;5.456;2022-08-07T00:29:48;102543.56;;;10.52;91.03
58622;BME280;44389;51.578;5.456;2022-08-07T00:32:14;102537.88;;;10.58;90.69
58622;BME280;44389;51.578;5.456;2022-08-07T00:34:39;102525.94;;;10.60;91.63
58622;BME280;44389;51.578;5.456;2022-08-07T00:37:05;102532.53;;;10.54;90.53
58622;BME280;44389;51.578;5.456;2022-08-07T00:39:31;102528.53;;;10.60;91.49
58622;BME280;44389;51.578;5.456;2022-08-07T00:41:58;102533.63;;;10.43;92.49
58622;BME280;44389;51.578;5.456;2022-08-07T00:44:23;102526.94;;;10.32;92.01
58622;BME280;44389;51.578;5.456;2022-08-07T00:46:49;102521.59;;;10.29;92.76
58622;BME280;44389;51.578;5.456;2022-08-07T00:49:14;102525.53;;;10.37;93.57
58622;BME280;44389;51.578;5.456;2022-08-07T00:51:40;102525.91;;;10.43;93.78
58622;BME280;44389;51.578;5.456;2022-08-07T00:54:05;102525.44;;;10.50;93.77
58622;BME280;44389;51.578;5.456;2022-08-07T00:56:32;102527.22;;;10.51;93.64
58622;BME280;44389;51.578;5.456;2022-08-07T00:58:57;102520.56;;;10.40;93.92
58622;BME280;44389;51.578;5.456;2022-08-07T01:01:23;102516.28;;;10.26;93.71
58622;BME280;44389;51.578;5.456;2022-08-07T01:03:49;102517.06;;;10.25;94.15
58622;BME280;44389;51.578;5.456;2022-08-07T01:06:16;102512.97;;;10.28;94.68
58622;BME280;44389;51.578;5.456;2022-08-07T01:08:41;102513.78;;;10.12;93.89
58622;BME280;44389;51.578;5.456;2022-08-07T01:11:07;102512.47;;;10.19;94.37
58622;BME280;44389;51.578;5.456;2022-08-07T01:13:33;102514.25;;;10.20;94.99
58622;BME280;44389;51.578;5.456;2022-08-07T01:15:59;102512.25;;;10.16;94.29
58622;BME280;44389;51.578;5.456;2022-08-07T01:18:25;102514.06;;;10.02;93.97
58622;BME280;44389;51.578;5.456;2022-08-07T01:21:14;102509.16;;;10.21;91.18
58622;BME280;44389;51.578;5.456;2022-08-07T01:23:40;102511.28;;;9.99;94.44
58622;BME280;44389;51.578;5.456;2022-08-07T01:26:07;102503.56;;;10.14;90.87
58622;BME280;44389;51.578;5.456;2022-08-07T01:28:32;102505.50;;;10.03;95.48
58622;BME280;44389;51.578;5.456;2022-08-07T01:30:59;102501.97;;;10.01;95.36
58622;BME280;44389;51.578;5.456;2022-08-07T01:33:25;102498.41;;;10.14;96.68
58622;BME280;44389;51.578;5.456;2022-08-07T01:35:50;102495.28;;;10.19;96.34
58622;BME280;44389;51.578;5.456;2022-08-07T01:38:16;102501.44;;;10.21;96.07
58622;BME280;44389;51.578;5.456;2022-08-07T01:40:42;102499.28;;;10.14;95.52
58622;BME280;44389;51.578;5.456;2022-08-07T01:43:09;102493.78;;;10.08;95.79
58622;BME280;44389;51.578;5.456;2022-08-07T01:45:35;102491.47;;;9.83;94.97
58622;BME280;44389;51.578;5.456;2022-08-07T01:48:00;102492.56;;;9.86;95.79
58622;BME280;44389;51.578;5.456;2022-08-07T01:50:27;102496.28;;;9.92;96.08
58622;BME280;44389;51.578;5.456;2022-08-07T01:52:55;102493.72;;;9.92;96.59
58622;BME280;44389;51.578;5.456;2022-08-07T01:55:27;102492.88;;;9.93;97.13
58622;BME280;44389;51.578;5.456;2022-08-07T01:57:56;102492.88;;;9.78;96.38
58622;BME280;44389;51.578;5.456;2022-08-07T02:00:25;102489.41;;;9.77;97.04
58622;BME280;44389;51.578;5.456;2022-08-07T02:02:55;102489.41;;;9.62;96.67
58622;BME280;44389;51.578;5.456;2022-08-07T02:05:25;102490.03;;;9.58;97.27
58622;BME280;44389;51.578;5.456;2022-08-07T02:07:53;102483.09;;;9.72;97.81
58622;BME280;44389;51.578;5.456;2022-08-07T02:10:22;102487.19;;;9.68;97.93
58622;BME280;44389;51.578;5.456;2022-08-07T02:12:50;102491.44;;;9.68;98.30
58622;BME280;44389;51.578;5.456;2022-08-07T02:15:20;102492.13;;;9.50;97.32
58622;BME280;44389;51.578;5.456;2022-08-07T02:17:47;102483.78;;;9.54;96.94
58622;BME280;44389;51.578;5.456;2022-08-07T02:20:15;102487.81;;;9.36;96.49
58622;BME280;44389;51.578;5.456;2022-08-07T02:22:41;102481.00;;;9.36;97.58
58622;BME280;44389;51.578;5.456;2022-08-07T02:25:07;102474.47;;;9.28;96.95
58622;BME280;44389;51.578;5.456;2022-08-07T02:27:34;102483.72;;;9.25;97.42
58622;BME280;44389;51.578;5.456;2022-08-07T02:30:01;102481.59;;;9.32;98.58
58622;BME280;44389;51.578;5.456;2022-08-07T02:32:26;102484.66;;;9.40;98.04
58622;BME280;44389;51.578;5.456;2022-08-07T02:34:53;102477.34;;;9.33;97.28
58622;BME280;44389;51.578;5.456;2022-08-07T02:37:21;102475.84;;;9.36;98.34
58622;BME280;44389;51.578;5.456;2022-08-07T02:39:48;102476.84;;;9.53;100.00
58622;BME280;44389;51.578;5.456;2022-08-07T02:42:14;102473.66;;;9.58;100.00
58622;BME280;44389;51.578;5.456;2022-08-07T02:44:43;102474.66;;;9.60;100.00
58622;BME280;44389;51.578;5.456;2022-08-07T02:47:10;102472.41;;;9.51;100.00
58622;BME280;44389;51.578;5.456;2022-08-07T02:49:37;102473.13;;;9.48;99.93
58622;BME280;44389;51.578;5.456;2022-08-07T02:52:04;102472.19;;;9.33;99.23
58622;BME280;44389;51.578;5.456;2022-08-07T02:54:34;102472.81;;;9.29;99.59
58622;BME280;44389;51.578;5.456;2022-08-07T02:57:02;102463.84;;;9.22;98.81
58622;BME280;44389;51.578;5.456;2022-08-07T02:59:30;102468.06;;;9.21;99.43
58622;BME280;44389;51.578;5.456;2022-08-07T03:01:56;102467.34;;;9.37;97.09
58622;BME280;44389;51.578;5.456;2022-08-07T03:04:22;102466.34;;;9.35;97.97
58622;BME280;44389;51.578;5.456;2022-08-07T03:06:48;102469.16;;;9.25;97.46
58622;BME280;44389;51.578;5.456;2022-08-07T03:09:15;102460.56;;;9.25;98.06
58622;BME280;44389;51.578;5.456;2022-08-07T03:11:42;102464.31;;;9.16;98.06
58622;BME280;44389;51.578;5.456;2022-08-07T03:14:08;102467.81;;;9.03;97.91
58622;BME280;44389;51.578;5.456;2022-08-07T03:16:34;102469.69;;;9.06;98.19
58622;BME280;44389;51.578;5.456;2022-08-07T03:19:00;102467.56;;;8.99;99.08
58622;BME280;44389;51.578;5.456;2022-08-07T03:21:26;102465.38;;;8.92;98.88
58622;BME280;44389;51.578;5.456;2022-08-07T03:23:56;102467.47;;;8.84;99.28
58622;BME280;44389;51.578;5.456;2022-08-07T03:26:25;102465.50;;;8.80;99.63
58622;BME280;44389;51.578;5.456;2022-08-07T03:28:53;102463.16;;;8.69;98.72
58622;BME280;44389;51.578;5.456;2022-08-07T03:31:20;102467.28;;;8.67;98.80
58622;BME280;44389;51.578;5.456;2022-08-07T03:33:52;102470.78;;;8.68;99.48
58622;BME280;44389;51.578;5.456;2022-08-07T03:36:21;102463.34;;;8.72;99.77
58622;BME280;44389;51.578;5.456;2022-08-07T03:38:47;102462.28;;;8.55;99.31
58622;BME280;44389;51.578;5.456;2022-08-07T03:41:14;102459.09;;;8.60;99.57
58622;BME280;44389;51.578;5.456;2022-08-07T03:43:40;102458.81;;;8.55;99.80
58622;BME280;44389;51.578;5.456;2022-08-07T03:46:06;102460.41;;;8.66;100.00
58622;BME280;44389;51.578;5.456;2022-08-07T03:48:33;102462.25;;;8.82;100.00
58622;BME280;44389;51.578;5.456;2022-08-07T03:50:59;102455.72;;;8.87;100.00
58622;BME280;44389;51.578;5.456;2022-08-07T03:53:26;102459.63;;;8.96;100.00
58622;BME280;44389;51.578;5.456;2022-08-07T03:55:52;102463.75;;;9.07;100.00
58622;BME280;44389;51.578;5.456;2022-08-07T03:58:19;102470.31;;;9.02;100.00
58622;BME280;44389;51.578;5.456;2022-08-07T04:00:45;102465.53;;;9.08;100.00
58622;BME280;44389;51.578;5.456;2022-08-07T04:03:11;102469.09;;;9.10;100.00
58622;BME280;44389;51.578;5.456;2022-08-07T04:05:36;102468.53;;;9.01;100.00
58622;BME280;44389;51.578;5.456;2022-08-07T04:08:02;102480.59;;;9.02;100.00
58622;BME280;44389;51.578;5.456;2022-08-07T04:10:28;102473.75;;;9.02;100.00
58622;BME280;44389;51.578;5.456;2022-08-07T04:12:54;102477.03;;;9.00;100.00
58622;BME280;44389;51.578;5.456;2022-08-07T04:15:20;102480.63;;;8.88;100.00
58622;BME280;44389;51.578;5.456;2022-08-07T04:17:45;102476.66;;;8.94;100.00
58622;BME280;44389;51.578;5.456;2022-08-07T04:20:12;102489.69;;;8.97;100.00
58622;BME280;44389;51.578;5.456;2022-08-07T04:22:39;102495.63;;;8.96;100.00
58622;BME280;44389;51.578;5.456;2022-08-07T04:25:06;102495.63;;;8.96;100.00
58622;BME280;44389;51.578;5.456;2022-08-07T04:27:33;102495.78;;;8.70;100.00
58622;BME280;44389;51.578;5.456;2022-08-07T04:29:58;102492.72;;;8.63;100.00
58622;BME280;44389;51.578;5.456;2022-08-07T04:32:24;102491.22;;;8.53;99.84
58622;BME280;44389;51.578;5.456;2022-08-07T04:34:50;102498.66;;;8.62;100.00
58622;BME280;44389;51.578;5.456;2022-08-07T04:37:15;102496.06;;;8.75;100.00
58622;BME280;44389;51.578;5.456;2022-08-07T04:39:41;102490.16;;;8.63;100.00
58622;BME280;44389;51.578;5.456;2022-08-07T04:42:06;102487.59;;;8.63;100.00
58622;BME280;44389;51.578;5.456;2022-08-07T04:44:32;102489.75;;;8.56;100.00
58622;BME280;44389;51.578;5.456;2022-08-07T04:47:22;102492.41;;;8.58;100.00
58622;BME280;44389;51.578;5.456;2022-08-07T04:49:58;102496.47;;;8.54;100.00
58622;BME280;44389;51.578;5.456;2022-08-07T04:52:45;102502.22;;;8.64;100.00
58622;BME280;44389;51.578;5.456;2022-08-07T04:55:34;102498.13;;;8.67;100.00
58622;BME280;44389;51.578;5.456;2022-08-07T04:58:18;102503.06;;;8.78;100.00
58622;BME280;44389;51.578;5.456;2022-08-07T05:00:52;102499.03;;;8.81;100.00
58622;BME280;44389;51.578;5.456;2022-08-07T05:03:43;102500.78;;;8.96;100.00
58622;BME280;44389;51.578;5.456;2022-08-07T05:06:18;102500.66;;;9.07;100.00
58622;BME280;44389;51.578;5.456;2022-08-07T05:08:49;102499.94;;;9.10;100.00
58622;BME280;44389;51.578;5.456;2022-08-07T05:11:31;102504.09;;;9.21;100.00
58622;BME280;44389;51.578;5.456;2022-08-07T05:14:00;102498.91;;;9.35;100.00
58622;BME280;44389;51.578;5.456;2022-08-07T05:16:29;102499.56;;;9.46;100.00
58622;BME280;44389;51.578;5.456;2022-08-07T05:19:02;102502.78;;;9.56;100.00
58622;BME280;44389;51.578;5.456;2022-08-07T05:21:29;102494.63;;;9.64;100.00
58622;BME280;44389;51.578;5.456;2022-08-07T05:24:03;102503.28;;;9.79;100.00
58622;BME280;44389;51.578;5.456;2022-08-07T05:26:32;102512.53;;;9.91;100.00
58622;BME280;44389;51.578;5.456;2022-08-07T05:29:00;102517.06;;;9.95;100.00
58622;BME280;44389;51.578;5.456;2022-08-07T05:31:29;102512.44;;;10.04;100.00
58622;BME280;44389;51.578;5.456;2022-08-07T05:33:57;102514.75;;;10.14;100.00
58622;BME280;44389;51.578;5.456;2022-08-07T05:36:23;102510.13;;;10.24;100.00
58622;BME280;44389;51.578;5.456;2022-08-07T05:38:51;102516.03;;;10.36;100.00
58622;BME280;44389;51.578;5.456;2022-08-07T05:41:17;102516.38;;;10.42;100.00
58622;BME280;44389;51.578;5.456;2022-08-07T05:43:47;102517.97;;;10.55;100.00
58622;BME280;44389;51.578;5.456;2022-08-07T05:46:14;102516.00;;;10.66;100.00
58622;BME280;44389;51.578;5.456;2022-08-07T05:48:40;102515.69;;;10.76;100.00
58622;BME280;44389;51.578;5.456;2022-08-07T05:51:07;102517.19;;;10.87;100.00
58622;BME280;44389;51.578;5.456;2022-08-07T05:53:33;102504.88;;;10.98;100.00
58622;BME280;44389;51.578;5.456;2022-08-07T05:55:59;102511.25;;;11.05;100.00
58622;BME280;44389;51.578;5.456;2022-08-07T05:58:26;102516.44;;;11.22;100.00
58622;BME280;44389;51.578;5.456;2022-08-07T06:00:52;102515.41;;;11.34;100.00
58622;BME280;44389;51.578;5.456;2022-08-07T06:03:19;102515.81;;;11.42;100.00
58622;BME280;44389;51.578;5.456;2022-08-07T06:05:47;102519.91;;;11.55;100.00
58622;BME280;44389;51.578;5.456;2022-08-07T06:08:14;102519.59;;;11.65;100.00
58622;BME280;44389;51.578;5.456;2022-08-07T06:10:40;102516.75;;;11.77;100.00
58622;BME280;44389;51.578;5.456;2022-08-07T06:13:07;102519.97;;;11.90;100.00
58622;BME280;44389;51.578;5.456;2022-08-07T06:15:36;102516.09;;;11.98;100.00
58622;BME280;44389;51.578;5.456;2022-08-07T06:18:03;102516.59;;;12.07;100.00
58622;BME280;44389;51.578;5.456;2022-08-07T06:20:30;102520.75;;;12.22;99.96
58622;BME280;44389;51.578;5.456;2022-08-07T06:22:56;102522.81;;;12.29;99.26
58622;BME280;44389;51.578;5.456;2022-08-07T06:25:21;102524.47;;;12.45;99.01
58622;BME280;44389;51.578;5.456;2022-08-07T06:27:47;102527.44;;;12.52;97.80
58622;BME280;44389;51.578;5.456;2022-08-07T06:30:12;102527.13;;;12.64;96.35
58622;BME280;44389;51.578;5.456;2022-08-07T06:32:38;102525.94;;;12.76;94.34
58622;BME280;44389;51.578;5.456;2022-08-07T06:35:04;102525.63;;;12.88;93.81
58622;BME280;44389;51.578;5.456;2022-08-07T06:37:29;102525.25;;;12.98;93.40
58622;BME280;44389;51.578;5.456;2022-08-07T06:39:54;102518.03;;;13.10;94.50
58622;BME280;44389;51.578;5.456;2022-08-07T06:42:24;102523.78;;;13.23;91.82
58622;BME280;44389;51.578;5.456;2022-08-07T06:44:50;102515.75;;;13.36;91.45
58622;BME280;44389;51.578;5.456;2022-08-07T06:47:17;102519.63;;;13.44;88.30
58622;BME280;44389;51.578;5.456;2022-08-07T06:49:43;102515.94;;;13.59;89.73
58622;BME280;44389;51.578;5.456;2022-08-07T06:52:09;102513.13;;;13.74;88.29
58622;BME280;44389;51.578;5.456;2022-08-07T06:54:37;102508.53;;;13.88;87.39
58622;BME280;44389;51.578;5.456;2022-08-07T06:57:05;102499.50;;;13.99;86.98
58622;BME280;44389;51.578;5.456;2022-08-07T06:59:40;102500.47;;;14.01;89.47
58622;BME280;44389;51.578;5.456;2022-08-07T07:02:14;102502.03;;;14.19;83.37
58622;BME280;44389;51.578;5.456;2022-08-07T07:04:44;102502.66;;;14.34;84.84
58622;BME280;44389;51.578;5.456;2022-08-07T07:07:10;102496.09;;;14.42;82.23
58622;BME280;44389;51.578;5.456;2022-08-07T07:09:36;102505.31;;;14.57;81.28
58622;BME280;44389;51.578;5.456;2022-08-07T07:12:29;102511.84;;;14.68;81.86
58622;BME280;44389;51.578;5.456;2022-08-07T07:15:06;102505.53;;;14.84;80.57
58622;BME280;44389;51.578;5.456;2022-08-07T07:17:40;102506.88;;;14.97;80.05
58622;BME280;44389;51.578;5.456;2022-08-07T07:20:12;102515.84;;;15.05;78.77
58622;BME280;44389;51.578;5.456;2022-08-07T07:22:41;102507.56;;;15.15;78.20
58622;BME280;44389;51.578;5.456;2022-08-07T07:25:09;102513.22;;;15.28;78.24
58622;BME280;44389;51.578;5.456;2022-08-07T07:27:40;102515.44;;;15.41;78.30
58622;BME280;44389;51.578;5.456;2022-08-07T07:30:07;102506.22;;;15.50;75.45
58622;BME280;44389;51.578;5.456;2022-08-07T07:32:36;102508.97;;;15.54;74.24
58622;BME280;44389;51.578;5.456;2022-08-07T07:35:03;102502.72;;;15.73;73.56
58622;BME280;44389;51.578;5.456;2022-08-07T07:37:31;102499.63;;;15.84;74.99
58622;BME280;44389;51.578;5.456;2022-08-07T07:40:02;102492.97;;;15.92;73.27
58622;BME280;44389;51.578;5.456;2022-08-07T07:42:29;102494.16;;;16.02;72.56
58622;BME280;44389;51.578;5.456;2022-08-07T07:44:55;102499.72;;;16.12;76.69
58622;BME280;44389;51.578;5.456;2022-08-07T07:47:23;102498.34;;;16.24;71.63
58622;BME280;44389;51.578;5.456;2022-08-07T07:49:50;102489.97;;;16.33;73.17
58622;BME280;44389;51.578;5.456;2022-08-07T07:52:16;102491.94;;;16.40;71.49
58622;BME280;44389;51.578;5.456;2022-08-07T07:54:44;102490.66;;;16.54;71.39
58622;BME280;44389;51.578;5.456;2022-08-07T07:57:11;102490.94;;;16.63;70.92
58622;BME280;44389;51.578;5.456;2022-08-07T07:59:39;102487.81;;;16.75;70.50
58622;BME280;44389;51.578;5.456;2022-08-07T08:02:06;102484.69;;;16.87;69.24
58622;BME280;44389;51.578;5.456;2022-08-07T08:04:34;102490.16;;;16.95;67.67
58622;BME280;44389;51.578;5.456;2022-08-07T08:07:01;102489.56;;;17.04;66.25
58622;BME280;44389;51.578;5.456;2022-08-07T08:09:27;102486.72;;;17.25;68.25
58622;BME280;44389;51.578;5.456;2022-08-07T08:11:54;102494.78;;;17.34;66.87
58622;BME280;44389;51.578;5.456;2022-08-07T08:14:20;102489.06;;;17.48;65.85
58622;BME280;44389;51.578;5.456;2022-08-07T08:16:46;102484.16;;;17.58;65.26
58622;BME280;44389;51.578;5.456;2022-08-07T08:19:15;102490.50;;;17.70;65.07
58622;BME280;44389;51.578;5.456;2022-08-07T08:21:45;102495.13;;;17.80;65.59
58622;BME280;44389;51.578;5.456;2022-08-07T08:24:33;102494.69;;;17.95;65.61
58622;BME280;44389;51.578;5.456;2022-08-07T08:27:21;102494.84;;;18.01;64.04
58622;BME280;44389;51.578;5.456;2022-08-07T08:29:53;102490.66;;;18.08;64.17
58622;BME280;44389;51.578;5.456;2022-08-07T08:32:24;102494.34;;;18.18;64.02
58622;BME280;44389;51.578;5.456;2022-08-07T08:34:50;102492.91;;;18.31;62.92
58622;BME280;44389;51.578;5.456;2022-08-07T08:37:18;102496.66;;;18.42;63.91
58622;BME280;44389;51.578;5.456;2022-08-07T08:39:44;102496.69;;;18.43;60.20
58622;BME280;44389;51.578;5.456;2022-08-07T08:42:12;102499.72;;;18.61;61.83
58622;BME280;44389;51.578;5.456;2022-08-07T08:44:49;102497.16;;;18.62;59.59
58622;BME280;44389;51.578;5.456;2022-08-07T08:47:33;102504.47;;;18.79;61.77
58622;BME280;44389;51.578;5.456;2022-08-07T08:52:36;102499.94;;;19.10;58.29
58622;BME280;44389;51.578;5.456;2022-08-07T08:55:16;102490.34;;;19.08;56.48
58622;BME280;44389;51.578;5.456;2022-08-07T08:57:52;102486.09;;;19.14;57.67
58622;BME280;44389;51.578;5.456;2022-08-07T09:00:25;102486.28;;;19.24;57.41
58622;BME280;44389;51.578;5.456;2022-08-07T09:03:15;102487.56;;;19.47;58.17
58622;BME280;44389;51.578;5.456;2022-08-07T09:12:08;102484.13;;;19.95;57.58
58622;BME280;44389;51.578;5.456;2022-08-07T09:14:41;102483.53;;;20.13;54.46
58622;BME280;44389;51.578;5.456;2022-08-07T09:20:21;102484.00;;;20.43;53.04
58622;BME280;44389;51.578;5.456;2022-08-07T09:23:19;102481.59;;;20.58;54.03
58622;BME280;44389;51.578;5.456;2022-08-07T09:25:48;102472.19;;;20.71;55.29
58622;BME280;44389;51.578;5.456;2022-08-07T09:28:27;102475.03;;;20.86;51.94
58622;BME280;44389;51.578;5.456;2022-08-07T09:31:02;102473.38;;;20.96;49.96
58622;BME280;44389;51.578;5.456;2022-08-07T09:36:13;102472.88;;;21.28;46.07
58622;BME280;44389;51.578;5.456;2022-08-07T09:41:34;102469.13;;;21.89;47.77
58622;BME280;44389;51.578;5.456;2022-08-07T09:44:24;102471.13;;;22.21;48.94
58622;BME280;44389;51.578;5.456;2022-08-07T09:47:18;102467.69;;;22.34;47.95
58622;BME280;44389;51.578;5.456;2022-08-07T09:49:56;102466.03;;;22.46;44.65
58622;BME280;44389;51.578;5.456;2022-08-07T09:52:41;102461.72;;;22.57;46.29
58622;BME280;44389;51.578;5.456;2022-08-07T09:55:20;102460.06;;;22.81;46.80
58622;BME280;44389;51.578;5.456;2022-08-07T10:03:40;102444.53;;;24.12;40.85
58622;BME280;44389;51.578;5.456;2022-08-07T10:09:34;102439.25;;;24.22;40.36
58622;BME280;44389;51.578;5.456;2022-08-07T10:17:52;102424.81;;;26.27;38.71
58622;BME280;44389;51.578;5.456;2022-08-07T10:26:50;102430.31;;;28.43;35.32
58622;BME280;44389;51.578;5.456;2022-08-07T10:40:13;102422.53;;;30.53;27.22
58622;BME280;44389;51.578;5.456;2022-08-07T10:43:01;102432.06;;;31.74;28.76
58622;BME280;44389;51.578;5.456;2022-08-07T10:45:37;102422.59;;;31.65;26.62
58622;BME280;44389;51.578;5.456;2022-08-07T10:51:13;102418.56;;;32.04;25.46
58622;BME280;44389;51.578;5.456;2022-08-07T10:59:26;102408.56;;;32.58;24.78
58622;BME280;44389;51.578;5.456;2022-08-07T11:02:01;102406.66;;;32.62;22.75
58622;BME280;44389;51.578;5.456;2022-08-07T11:05:08;102401.50;;;33.46;23.89
58622;BME280;44389;51.578;5.456;2022-08-07T11:07:44;102404.97;;;33.69;22.50
58622;BME280;44389;51.578;5.456;2022-08-07T11:10:28;102390.88;;;34.06;24.21
58622;BME280;44389;51.578;5.456;2022-08-07T11:13:02;102393.19;;;34.35;22.70
58622;BME280;44389;51.578;5.456;2022-08-07T11:15:34;102389.13;;;34.05;20.92
58622;BME280;44389;51.578;5.456;2022-08-07T11:20:47;102382.06;;;31.81;23.80
58622;BME280;44389;51.578;5.456;2022-08-07T11:26:24;102381.09;;;27.83;29.19
58622;BME280;44389;51.578;5.456;2022-08-07T11:29:13;102374.47;;;27.02;30.87
58622;BME280;44389;51.578;5.456;2022-08-07T11:31:49;102364.56;;;27.17;29.74
58622;BME280;44389;51.578;5.456;2022-08-07T11:34:48;102367.28;;;27.65;28.82
58622;BME280;44389;51.578;5.456;2022-08-07T11:39:52;102354.38;;;28.81;28.12
58622;BME280;44389;51.578;5.456;2022-08-07T11:42:29;102351.22;;;29.72;26.85
58622;BME280;44389;51.578;5.456;2022-08-07T11:45:09;102354.47;;;30.46;26.90
58622;BME280;44389;51.578;5.456;2022-08-07T11:50:45;102352.97;;;32.47;26.17
58622;BME280;44389;51.578;5.456;2022-08-07T11:59:36;102343.00;;;34.00;22.98
58622;BME280;44389;51.578;5.456;2022-08-07T12:08:01;102341.81;;;33.87;21.94
58622;BME280;44389;51.578;5.456;2022-08-07T12:13:10;102331.94;;;33.89;21.46
58622;BME280;44389;51.578;5.456;2022-08-07T12:15:41;102332.66;;;33.10;21.35
58622;BME280;44389;51.578;5.456;2022-08-07T12:18:18;102333.41;;;33.75;21.19
58622;BME280;44389;51.578;5.456;2022-08-07T12:20:47;102332.09;;;33.44;20.67
58622;BME280;44389;51.578;5.456;2022-08-07T12:26:21;102330.47;;;32.97;21.60
58622;BME280;44389;51.578;5.456;2022-08-07T12:28:57;102320.16;;;33.33;21.03
58622;BME280;44389;51.578;5.456;2022-08-07T12:31:53;102320.38;;;33.88;21.61
58622;BME280;44389;51.578;5.456;2022-08-07T12:34:23;102319.06;;;33.57;20.11
58622;BME280;44389;51.578;5.456;2022-08-07T12:36:51;102320.50;;;32.80;20.50
58622;BME280;44389;51.578;5.456;2022-08-07T12:39:18;102316.84;;;32.83;20.43
58622;BME280;44389;51.578;5.456;2022-08-07T12:41:45;102310.00;;;32.98;21.08
58622;BME280;44389;51.578;5.456;2022-08-07T12:44:12;102317.94;;;33.42;20.14
58622;BME280;44389;51.578;5.456;2022-08-07T12:49:52;102314.28;;;33.85;21.61
58622;BME280;44389;51.578;5.456;2022-08-07T12:55:06;102300.13;;;33.21;20.26
58622;BME280;44389;51.578;5.456;2022-08-07T12:57:36;102305.19;;;33.06;20.10
58622;BME280;44389;51.578;5.456;2022-08-07T13:00:03;102294.56;;;33.27;20.63
58622;BME280;44389;51.578;5.456;2022-08-07T13:05:55;102295.97;;;32.93;19.84
58622;BME280;44389;51.578;5.456;2022-08-07T13:08:50;102295.13;;;33.94;21.66
58622;BME280;44389;51.578;5.456;2022-08-07T13:11:24;102301.44;;;34.50;20.18
58622;BME280;44389;51.578;5.456;2022-08-07T13:14:02;102300.38;;;35.24;19.82
58622;BME280;44389;51.578;5.456;2022-08-07T13:16:40;102300.75;;;35.52;19.10
58622;BME280;44389;51.578;5.456;2022-08-07T13:19:23;102287.88;;;35.07;19.80
58622;BME280;44389;51.578;5.456;2022-08-07T13:22:02;102281.28;;;34.78;18.65
58622;BME280;44389;51.578;5.456;2022-08-07T13:25:09;102285.03;;;35.28;20.44
58622;BME280;44389;51.578;5.456;2022-08-07T13:27:47;102281.09;;;35.35;20.12
58622;BME280;44389;51.578;5.456;2022-08-07T13:30:14;102281.22;;;34.79;19.50
58622;BME280;44389;51.578;5.456;2022-08-07T13:33:06;102281.41;;;35.29;20.53
58622;BME280;44389;51.578;5.456;2022-08-07T13:35:43;102277.00;;;34.56;19.71
58622;BME280;44389;51.578;5.456;2022-08-07T13:38:20;102280.41;;;34.04;20.49
58622;BME280;44389;51.578;5.456;2022-08-07T13:40:56;102280.97;;;33.92;20.25
58622;BME280;44389;51.578;5.456;2022-08-07T13:43:26;102267.13;;;34.20;20.22
58622;BME280;44389;51.578;5.456;2022-08-07T13:45:56;102271.56;;;34.21;20.36
58622;BME280;44389;51.578;5.456;2022-08-07T13:48:23;102269.75;;;34.22;21.30
58622;BME280;44389;51.578;5.456;2022-08-07T13:50:51;102269.38;;;34.49;19.31
58622;BME280;44389;51.578;5.456;2022-08-07T13:53:20;102260.69;;;34.43;19.42
58622;BME280;44389;51.578;5.456;2022-08-07T13:55:47;102266.25;;;34.58;20.07
58622;BME280;44389;51.578;5.456;2022-08-07T13:58:15;102264.34;;;34.23;19.39
58622;BME280;44389;51.578;5.456;2022-08-07T14:01:08;102261.88;;;34.38;19.84
58622;BME280;44389;51.578;5.456;2022-08-07T14:03:34;102255.38;;;34.05;19.25
58622;BME280;44389;51.578;5.456;2022-08-07T14:06:05;102252.72;;;33.46;19.50
58622;BME280;44389;51.578;5.456;2022-08-07T14:08:32;102244.84;;;33.23;20.23
58622;BME280;44389;51.578;5.456;2022-08-07T14:11:03;102245.56;;;33.26;19.99
58622;BME280;44389;51.578;5.456;2022-08-07T14:13:30;102244.03;;;33.00;20.50
58622;BME280;44389;51.578;5.456;2022-08-07T14:16:02;102249.91;;;32.43;21.11
58622;BME280;44389;51.578;5.456;2022-08-07T14:18:43;102246.16;;;32.03;21.40
58622;BME280;44389;51.578;5.456;2022-08-07T14:21:25;102244.78;;;31.93;22.00
58622;BME280;44389;51.578;5.456;2022-08-07T14:24:06;102244.53;;;32.23;22.31
58622;BME280;44389;51.578;5.456;2022-08-07T14:26:47;102249.75;;;31.78;21.65
58622;BME280;44389;51.578;5.456;2022-08-07T14:29:16;102243.50;;;31.05;22.35
58622;BME280;44389;51.578;5.456;2022-08-07T14:31:45;102243.03;;;30.65;22.62
58622;BME280;44389;51.578;5.456;2022-08-07T14:34:13;102237.50;;;30.43;22.68
58622;BME280;44389;51.578;5.456;2022-08-07T14:36:40;102236.56;;;29.87;23.69
58622;BME280;44389;51.578;5.456;2022-08-07T14:39:09;102229.28;;;29.31;24.31
58622;BME280;44389;51.578;5.456;2022-08-07T14:41:35;102228.81;;;28.79;24.32
58622;BME280;44389;51.578;5.456;2022-08-07T14:44:06;102238.53;;;28.42;25.91